General Aviation Weather

Text Reports

Enter one or more of the following location identifiers separated by a space:

Zip Code, Four-Character ICAO or Three-Character IATA airport codes.

METAR - Aviation Routine Weather Report
KSKX - Taos, New Mexico
Updated at 12:55 PM GMT on October 31, 2014 (6:55 AM MDT):
METAR KSKX 311255Z AUTO 33004KT 10SM CLR M04/M13 A3045 RMK AO1
TAF - Terminal Area Forecast
KSKX - Taos, New Mexico
Updated at 12:55 PM GMT on October 31, 2014 (6:55 AM MDT):
No TAF is currently available for this location.
Decoded:
No decoded TAF is available.
PIREP - Pilot Weather Report
KSKX - Taos, New Mexico
Updated at 12:55 PM GMT on October 31, 2014 (6:55 AM MDT):
No PIREP is currently available for this location.
AIRMET - Airmens Meteorological Information
KSKX - Taos, New Mexico
Updated at 12:55 PM GMT on October 31, 2014 (6:55 AM MDT):
No AIRMET is currently available for this location.
SIGMET - Significant Meteorological Information
KSKX - Taos, New Mexico
Updated at 12:55 PM GMT on October 31, 2014 (6:55 AM MDT):
No SIGMET is currently available for this location.
NOTAM - Notice to Airmen
KSKX - Taos, New Mexico
Updated at 12:55 PM GMT on October 31, 2014 (6:55 AM MDT):
No NOTAM is currently available for this location.
Forecast Area
KSKX - Taos, New Mexico
Updated at 12:55 PM GMT on October 31, 2014 (6:55 AM MDT):
No NOTAM is currently available for this location.
Aviation Weather Maps